createdAt,value
2023-01-19T00:00:56.603Z,6.70
2023-01-19T00:03:24.376Z,6.70
2023-01-19T00:05:53.006Z,6.70
2023-01-19T00:08:22.416Z,6.80
2023-01-19T00:10:53.638Z,6.80
2023-01-19T00:13:22.349Z,6.80
2023-01-19T00:15:50.212Z,6.80
2023-01-19T00:18:18.029Z,6.80
2023-01-19T00:20:46.833Z,6.80
2023-01-19T00:23:19.868Z,6.80
2023-01-19T00:25:49.258Z,6.90
2023-01-19T00:28:18.203Z,6.90
2023-01-19T00:30:47.143Z,6.90
2023-01-19T00:33:15.726Z,6.90
2023-01-19T00:35:44.163Z,6.90
2023-01-19T00:38:13.286Z,6.90
2023-01-19T00:40:41.905Z,6.90
2023-01-19T00:43:10.154Z,6.80
2023-01-19T00:45:37.877Z,6.90
2023-01-19T00:48:06.948Z,6.90
2023-01-19T00:50:36.356Z,6.90
2023-01-19T00:53:04.115Z,6.90
2023-01-19T00:55:33.749Z,6.80
2023-01-19T00:58:03.847Z,6.80
2023-01-19T01:00:31.614Z,6.90
2023-01-19T01:03:00.012Z,6.80
2023-01-19T01:05:47.936Z,6.90
2023-01-19T01:08:15.834Z,6.90
2023-01-19T01:10:43.598Z,6.90
2023-01-19T01:13:21.451Z,6.90
2023-01-19T01:15:41.959Z,6.90
2023-01-19T01:18:10.059Z,6.90
2023-01-19T01:20:38.423Z,7.00
2023-01-19T01:23:09.824Z,6.90
2023-01-19T01:25:38.819Z,7.00
2023-01-19T01:28:08.939Z,7.00
2023-01-19T01:30:38.755Z,7.00
2023-01-19T01:33:07.248Z,7.00
2023-01-19T01:35:35.251Z,7.00
2023-01-19T01:38:02.721Z,7.00
2023-01-19T01:40:30.850Z,7.00
2023-01-19T01:43:03.174Z,7.00
2023-01-19T01:45:34.866Z,7.00
2023-01-19T01:48:23.037Z,7.10
2023-01-19T01:51:15.923Z,7.00
2023-01-19T01:53:47.665Z,7.00
2023-01-19T01:56:20.697Z,7.00
2023-01-19T01:58:49.443Z,7.00
2023-01-19T02:01:36.298Z,7.00
2023-01-19T02:04:04.444Z,7.00
2023-01-19T02:06:35.348Z,7.00
2023-01-19T02:09:25.046Z,7.00
2023-01-19T02:12:13.486Z,7.00
2023-01-19T02:14:41.946Z,7.00
2023-01-19T02:17:09.971Z,7.00
2023-01-19T02:19:43.637Z,7.00
2023-01-19T02:22:17.988Z,6.90
2023-01-19T02:24:46.606Z,6.90
2023-01-19T02:27:25.705Z,6.90
2023-01-19T02:29:53.736Z,6.90
2023-01-19T02:32:21.941Z,6.90
2023-01-19T02:34:58.505Z,6.90
2023-01-19T02:37:27.888Z,6.90
2023-01-19T02:39:59.796Z,6.90
2023-01-19T02:42:48.286Z,6.90
2023-01-19T02:45:20.146Z,6.80
2023-01-19T02:47:53.163Z,6.80
2023-01-19T02:50:39.855Z,6.80
2023-01-19T02:53:14.119Z,6.80
2023-01-19T02:55:45.666Z,6.80
2023-01-19T02:58:22.673Z,6.80
2023-01-19T03:00:59.996Z,6.70
2023-01-19T03:03:34.933Z,6.70
2023-01-19T03:06:06.220Z,6.70
2023-01-19T03:08:56.267Z,6.60
2023-01-19T03:11:27.554Z,6.70
2023-01-19T03:14:12.438Z,6.70
2023-01-19T03:16:42.619Z,6.70
2023-01-19T03:19:16.919Z,6.60
2023-01-19T03:21:46.825Z,6.60
2023-01-19T03:24:17.082Z,6.60
2023-01-19T03:26:49.553Z,6.60
2023-01-19T03:29:20.957Z,6.60
2023-01-19T03:31:51.593Z,6.60
2023-01-19T03:34:23.484Z,6.60
2023-01-19T03:36:57.433Z,6.70
2023-01-19T03:39:27.319Z,6.70
2023-01-19T03:42:01.648Z,6.70
2023-01-19T03:44:32.426Z,6.70
2023-01-19T03:47:01.522Z,6.70
2023-01-19T03:49:31.915Z,6.70
2023-01-19T03:52:00.352Z,6.70
2023-01-19T03:54:29.838Z,6.70
2023-01-19T03:56:58.257Z,6.70
2023-01-19T03:59:27.015Z,6.70
2023-01-19T04:01:55.009Z,6.80
2023-01-19T04:04:22.850Z,6.80
2023-01-19T04:06:51.391Z,6.80
2023-01-19T04:09:39.357Z,6.80
2023-01-19T04:12:07.416Z,6.80
2023-01-19T04:14:35.401Z,6.80
2023-01-19T04:17:06.069Z,6.80
2023-01-19T04:19:34.154Z,6.80
2023-01-19T04:22:02.334Z,6.80
2023-01-19T04:24:29.938Z,6.80
2023-01-19T04:26:57.975Z,6.70
2023-01-19T04:29:25.365Z,6.70
2023-01-19T04:31:52.909Z,6.70
2023-01-19T04:34:20.993Z,6.70
2023-01-19T04:36:50.660Z,6.70
2023-01-19T04:39:18.997Z,6.80
2023-01-19T04:41:46.642Z,6.80
2023-01-19T04:44:14.304Z,6.80
2023-01-19T04:46:42.155Z,6.80
2023-01-19T04:49:10.653Z,6.90
2023-01-19T04:51:38.552Z,6.90
2023-01-19T04:54:07.010Z,7.00
2023-01-19T04:56:35.380Z,7.00
2023-01-19T04:59:03.445Z,7.00
2023-01-19T05:01:31.645Z,7.00
2023-01-19T05:04:01.024Z,7.00
2023-01-19T05:06:28.829Z,7.10
2023-01-19T05:08:56.459Z,7.10
2023-01-19T05:11:26.334Z,7.10
2023-01-19T05:13:54.040Z,7.10
2023-01-19T05:16:22.342Z,7.20
2023-01-19T05:18:50.402Z,7.20
2023-01-19T05:21:18.503Z,7.10
2023-01-19T05:23:46.845Z,7.10
2023-01-19T05:26:15.066Z,7.20
2023-01-19T05:28:45.336Z,7.20
2023-01-19T05:31:13.513Z,7.20
2023-01-19T05:33:41.470Z,7.20
2023-01-19T05:36:10.873Z,7.10
2023-01-19T05:38:38.848Z,7.10
2023-01-19T05:41:06.772Z,7.10
2023-01-19T05:43:34.172Z,7.10
2023-01-19T05:46:13.257Z,7.10
2023-01-19T05:48:41.461Z,7.00
2023-01-19T05:51:12.429Z,7.00
2023-01-19T05:53:39.899Z,7.00
2023-01-19T05:56:09.710Z,7.00
2023-01-19T05:58:39.598Z,6.90
2023-01-19T06:01:09.128Z,6.80
2023-01-19T06:03:38.130Z,6.80
2023-01-19T06:06:06.420Z,6.90
2023-01-19T06:08:35.407Z,6.90
2023-01-19T06:11:06.029Z,6.90
2023-01-19T06:13:34.771Z,6.90
2023-01-19T06:16:03.634Z,7.00
2023-01-19T06:18:32.418Z,7.00
2023-01-19T06:21:09.147Z,7.00
2023-01-19T06:23:37.444Z,7.00
2023-01-19T06:26:05.391Z,7.00
2023-01-19T06:28:36.476Z,7.10
2023-01-19T06:31:04.198Z,7.10
2023-01-19T06:33:32.352Z,7.10
2023-01-19T06:36:00.553Z,7.10
2023-01-19T06:38:29.157Z,7.10
2023-01-19T06:41:03.057Z,7.10
2023-01-19T06:43:31.975Z,7.10
2023-01-19T06:46:02.498Z,7.10
2023-01-19T06:48:30.145Z,7.10
2023-01-19T06:50:59.662Z,7.10
2023-01-19T06:53:31.091Z,7.10
2023-01-19T06:56:02.145Z,7.20
2023-01-19T06:58:31.888Z,7.20
2023-01-19T07:01:04.446Z,7.10
2023-01-19T07:03:32.998Z,7.10
2023-01-19T07:06:06.535Z,7.10
2023-01-19T07:08:35.722Z,7.10
2023-01-19T07:11:23.011Z,7.20
2023-01-19T07:13:38.427Z,7.20
2023-01-19T07:16:12.199Z,7.30
2023-01-19T07:18:41.361Z,7.30
2023-01-19T07:21:09.314Z,7.40
2023-01-19T07:23:38.642Z,7.40
2023-01-19T07:26:06.769Z,7.40
2023-01-19T07:28:34.792Z,7.40
2023-01-19T07:31:09.876Z,7.40
2023-01-19T07:33:44.787Z,7.40
2023-01-19T07:36:12.999Z,7.40
2023-01-19T07:38:55.580Z,7.40
2023-01-19T07:41:23.864Z,7.30
2023-01-19T07:43:52.980Z,7.40
2023-01-19T07:46:21.652Z,7.40
2023-01-19T07:48:49.469Z,7.40
2023-01-19T07:51:20.191Z,7.30
2023-01-19T07:53:51.414Z,7.40
2023-01-19T07:56:23.440Z,7.40
2023-01-19T07:58:52.700Z,7.40
2023-01-19T08:01:20.891Z,7.40
2023-01-19T08:03:49.839Z,7.40
2023-01-19T08:06:21.906Z,7.50
2023-01-19T08:08:50.527Z,7.50
2023-01-19T08:11:18.056Z,7.50
2023-01-19T08:13:46.213Z,7.50
2023-01-19T08:16:13.800Z,7.50
2023-01-19T08:18:41.391Z,7.50
2023-01-19T08:21:09.530Z,7.50
2023-01-19T08:23:44.816Z,7.50
2023-01-19T08:26:31.202Z,7.50
2023-01-19T08:29:01.891Z,7.50
2023-01-19T08:31:30.537Z,7.50
2023-01-19T08:33:58.857Z,7.40
2023-01-19T08:36:27.068Z,7.50
2023-01-19T08:38:54.874Z,7.40
2023-01-19T08:41:26.141Z,7.40
2023-01-19T08:43:53.931Z,7.40
2023-01-19T08:46:25.644Z,7.40
2023-01-19T08:48:53.292Z,7.40
2023-01-19T08:51:21.537Z,7.40
2023-01-19T08:53:49.779Z,7.30
2023-01-19T08:56:20.479Z,7.30
2023-01-19T08:58:53.633Z,7.30
2023-01-19T09:01:19.222Z,7.20
2023-01-19T09:03:47.489Z,7.20
2023-01-19T09:06:19.094Z,7.10
2023-01-19T09:08:47.727Z,7.10
2023-01-19T09:11:16.752Z,7.00
2023-01-19T09:13:45.205Z,7.00
2023-01-19T09:16:13.650Z,7.00
2023-01-19T09:18:41.854Z,7.00
2023-01-19T09:21:10.446Z,6.90
2023-01-19T09:23:38.309Z,6.90
2023-01-19T09:26:07.001Z,6.70
2023-01-19T09:28:34.892Z,6.60
2023-01-19T09:31:07.850Z,6.60
2023-01-19T09:33:36.246Z,6.60
2023-01-19T09:36:05.053Z,6.70
2023-01-19T09:38:33.230Z,6.70
2023-01-19T09:41:01.767Z,6.60
2023-01-19T09:43:48.625Z,6.60
2023-01-19T09:46:22.842Z,6.70
2023-01-19T09:48:53.300Z,6.60
2023-01-19T09:51:27.424Z,6.60
2023-01-19T09:54:14.773Z,6.50
2023-01-19T09:56:45.249Z,6.50
2023-01-19T09:59:25.959Z,6.50
2023-01-19T10:02:06.880Z,6.40
2023-01-19T10:04:39.464Z,6.40
2023-01-19T10:07:27.918Z,6.30
2023-01-19T10:10:20.590Z,6.20
2023-01-19T10:13:08.883Z,6.00
2023-01-19T10:15:49.980Z,5.90
2023-01-19T10:18:44.683Z,5.80
2023-01-19T10:21:21.849Z,5.80
2023-01-19T10:24:17.439Z,5.80
2023-01-19T10:26:49.020Z,5.80
2023-01-19T10:29:27.235Z,5.70
2023-01-19T10:32:04.573Z,5.70
2023-01-19T10:34:32.337Z,5.80
2023-01-19T10:37:05.886Z,5.80
2023-01-19T10:39:37.405Z,5.80
2023-01-19T10:42:04.517Z,5.80
2023-01-19T10:44:37.807Z,5.80
2023-01-19T10:47:07.605Z,5.80
2023-01-19T10:49:40.789Z,5.80
2023-01-19T10:52:11.653Z,5.80
2023-01-19T10:54:41.484Z,5.80
2023-01-19T10:57:10.757Z,5.90
2023-01-19T10:59:51.241Z,5.90
2023-01-19T11:02:23.013Z,5.90
2023-01-19T11:04:53.189Z,5.90
2023-01-19T11:07:24.701Z,6.00
2023-01-19T11:09:56.780Z,6.00
2023-01-19T11:12:25.486Z,6.10
2023-01-19T11:14:54.986Z,6.10
2023-01-19T11:17:28.234Z,6.20
2023-01-19T11:20:01.428Z,6.20
2023-01-19T11:22:33.320Z,6.30
2023-01-19T11:25:05.266Z,6.40
2023-01-19T11:27:36.575Z,6.40
2023-01-19T11:30:11.411Z,6.50
2023-01-19T11:32:48.961Z,6.60
2023-01-19T11:35:40.030Z,6.60
2023-01-19T11:38:20.323Z,6.70
2023-01-19T11:40:54.506Z,6.80
2023-01-19T11:43:25.123Z,6.90
2023-01-19T11:45:53.193Z,6.90
2023-01-19T11:48:24.491Z,7.00
2023-01-19T11:50:53.241Z,7.00
2023-01-19T11:53:28.468Z,7.00
2023-01-19T11:56:14.908Z,7.10
2023-01-19T11:58:47.021Z,7.10
2023-01-19T12:01:30.382Z,7.20
2023-01-19T12:04:11.644Z,7.20
2023-01-19T12:06:42.911Z,7.30
2023-01-19T12:09:14.479Z,7.20
2023-01-19T12:11:52.052Z,7.30
2023-01-19T12:14:27.351Z,7.30
2023-01-19T12:16:58.662Z,7.40
2023-01-19T12:19:30.750Z,7.40
2023-01-19T12:22:13.843Z,7.40
2023-01-19T12:24:57.195Z,7.40
2023-01-19T12:27:44.771Z,7.40
2023-01-19T12:30:22.844Z,7.40
2023-01-19T12:32:54.359Z,7.40
2023-01-19T12:35:58.053Z,7.40
2023-01-19T12:38:42.153Z,7.40
2023-01-19T12:41:31.790Z,7.40
2023-01-19T12:44:16.793Z,7.40
2023-01-19T12:46:50.960Z,7.50
2023-01-19T12:49:26.229Z,7.50
2023-01-19T12:51:58.599Z,7.50
2023-01-19T12:54:34.895Z,7.60
2023-01-19T12:57:05.754Z,7.60
2023-01-19T12:59:36.499Z,7.70
2023-01-19T13:02:42.515Z,7.70
2023-01-19T13:05:25.519Z,7.80
2023-01-19T13:08:09.140Z,7.70
2023-01-19T13:11:03.244Z,7.80
2023-01-19T13:13:36.425Z,7.80
2023-01-19T13:16:24.791Z,7.90
2023-01-19T13:19:11.877Z,7.90
2023-01-19T13:21:46.801Z,7.90
2023-01-19T13:24:25.545Z,8.00
2023-01-19T13:26:55.786Z,8.00
2023-01-19T13:29:34.079Z,8.00
2023-01-19T13:32:17.921Z,8.00
2023-01-19T13:34:54.882Z,8.10
2023-01-19T13:37:25.867Z,8.10
2023-01-19T13:39:55.019Z,8.10
2023-01-19T13:42:32.938Z,8.10
2023-01-19T13:45:04.629Z,8.10
2023-01-19T13:47:42.206Z,8.10
2023-01-19T13:50:25.804Z,8.10
2023-01-19T13:52:55.972Z,8.10
2023-01-19T13:55:25.158Z,8.10
2023-01-19T13:57:53.492Z,8.10
2023-01-19T14:00:30.832Z,8.10
2023-01-19T14:03:04.760Z,8.10
2023-01-19T14:05:37.837Z,8.10
2023-01-19T14:08:12.653Z,8.00
2023-01-19T14:10:47.490Z,8.00
2023-01-19T14:13:21.703Z,8.00
2023-01-19T14:15:52.075Z,7.90
2023-01-19T14:18:30.412Z,7.90
2023-01-19T14:21:14.383Z,7.90
2023-01-19T14:23:51.329Z,7.90
2023-01-19T14:26:40.245Z,7.90
2023-01-19T14:29:17.583Z,7.90
2023-01-19T14:31:55.095Z,7.90
2023-01-19T14:34:39.309Z,7.90
2023-01-19T14:37:21.559Z,7.90
2023-01-19T14:39:59.002Z,7.90
2023-01-19T14:42:31.088Z,7.90
2023-01-19T14:45:03.537Z,7.80
2023-01-19T14:47:41.414Z,7.80
2023-01-19T14:50:37.677Z,7.80
2023-01-19T14:53:18.246Z,7.80
2023-01-19T14:55:55.929Z,7.80
2023-01-19T14:58:26.578Z,7.80
2023-01-19T15:00:57.227Z,7.80
2023-01-19T15:03:34.978Z,7.80
2023-01-19T15:05:57.277Z,7.70
2023-01-19T15:08:31.445Z,7.70
2023-01-19T15:11:06.274Z,7.70
2023-01-19T15:13:34.177Z,7.70
2023-01-19T15:16:04.174Z,7.70
2023-01-19T15:18:32.224Z,7.70
2023-01-19T15:21:03.449Z,7.70
2023-01-19T15:23:31.773Z,7.70
2023-01-19T15:26:04.592Z,7.70
2023-01-19T15:28:33.572Z,7.70
2023-01-19T15:31:01.658Z,7.70
2023-01-19T15:33:33.263Z,7.70
2023-01-19T15:36:01.018Z,7.70
2023-01-19T15:38:29.310Z,7.70
2023-01-19T15:40:58.287Z,7.60
2023-01-19T15:43:25.870Z,7.60
2023-01-19T15:46:02.666Z,7.60
2023-01-19T15:48:33.727Z,7.60
2023-01-19T15:51:03.315Z,7.60
2023-01-19T15:53:35.055Z,7.60
2023-01-19T15:56:03.139Z,7.50
2023-01-19T15:58:31.702Z,7.50
2023-01-19T16:01:00.723Z,7.50
2023-01-19T16:03:29.101Z,7.50
2023-01-19T16:06:16.887Z,7.50
2023-01-19T16:08:48.800Z,7.50
2023-01-19T16:11:18.580Z,7.50
2023-01-19T16:13:47.327Z,7.50
2023-01-19T16:16:24.733Z,7.50
2023-01-19T16:18:52.420Z,7.50
2023-01-19T16:21:20.348Z,7.50
2023-01-19T16:23:48.462Z,7.40
2023-01-19T16:26:32.603Z,7.40
2023-01-19T16:29:10.786Z,7.40
2023-01-19T16:31:40.601Z,7.40
2023-01-19T16:34:09.130Z,7.40
2023-01-19T16:36:40.461Z,7.40
2023-01-19T16:39:14.111Z,7.40
2023-01-19T16:41:43.219Z,7.30
2023-01-19T16:44:12.704Z,7.30
2023-01-19T16:46:43.133Z,7.30
2023-01-19T16:49:17.612Z,7.30
2023-01-19T16:51:46.319Z,7.30
2023-01-19T16:54:18.177Z,7.30
2023-01-19T16:56:47.053Z,7.30
2023-01-19T16:59:17.305Z,7.30
2023-01-19T17:01:45.782Z,7.30
2023-01-19T17:04:14.111Z,7.30
2023-01-19T17:06:42.431Z,7.30
2023-01-19T17:09:11.016Z,7.30
2023-01-19T17:11:40.600Z,7.30
2023-01-19T17:14:14.770Z,7.30
2023-01-19T17:16:43.863Z,7.30
2023-01-19T17:19:15.088Z,7.30
2023-01-19T17:21:45.373Z,7.30
2023-01-19T17:24:13.594Z,7.30
2023-01-19T17:26:42.210Z,7.30
2023-01-19T17:29:13.900Z,7.30
2023-01-19T17:31:41.906Z,7.30
2023-01-19T17:34:10.377Z,7.30
2023-01-19T17:36:38.212Z,7.30
2023-01-19T17:39:08.602Z,7.30
2023-01-19T17:41:36.392Z,7.30
2023-01-19T17:44:06.667Z,7.30
2023-01-19T17:46:39.452Z,7.30
2023-01-19T17:49:08.456Z,7.30
2023-01-19T17:51:36.489Z,7.30
2023-01-19T17:54:05.338Z,7.30
2023-01-19T17:56:36.109Z,7.30
2023-01-19T17:59:19.956Z,7.30
2023-01-19T18:01:48.280Z,7.30
2023-01-19T18:04:16.896Z,7.40
2023-01-19T18:06:47.066Z,7.30
2023-01-19T18:09:29.622Z,7.30
2023-01-19T18:11:57.520Z,7.40
2023-01-19T18:14:25.568Z,7.40
2023-01-19T18:16:53.326Z,7.40
2023-01-19T18:19:22.661Z,7.30
2023-01-19T18:21:51.037Z,7.30
2023-01-19T18:24:19.467Z,7.30
2023-01-19T18:26:47.655Z,7.30
2023-01-19T18:29:17.042Z,7.30
2023-01-19T18:31:44.714Z,7.30
2023-01-19T18:34:15.989Z,7.20
2023-01-19T18:36:44.691Z,7.20
2023-01-19T18:39:16.249Z,7.10
2023-01-19T18:41:44.816Z,7.10
2023-01-19T18:44:12.791Z,7.10
2023-01-19T18:46:40.636Z,7.20
2023-01-19T18:49:08.565Z,7.20
2023-01-19T18:51:36.887Z,7.20
2023-01-19T18:54:04.767Z,7.20
2023-01-19T18:56:39.470Z,7.20
2023-01-19T18:59:08.137Z,7.20
2023-01-19T19:01:38.341Z,7.20
2023-01-19T19:04:06.578Z,7.10
2023-01-19T19:06:34.750Z,7.00
2023-01-19T19:09:22.043Z,7.10
2023-01-19T19:11:49.852Z,7.10
2023-01-19T19:14:19.248Z,7.10
2023-01-19T19:16:48.450Z,7.10
2023-01-19T19:19:24.714Z,7.10
2023-01-19T19:21:59.878Z,7.10
2023-01-19T19:24:28.489Z,7.10
2023-01-19T19:26:56.340Z,7.10
2023-01-19T19:29:24.263Z,7.10
2023-01-19T19:31:53.462Z,7.00
2023-01-19T19:34:21.464Z,7.10
2023-01-19T19:36:48.859Z,7.00
2023-01-19T19:39:17.484Z,7.00
2023-01-19T19:41:45.398Z,7.00
2023-01-19T19:44:15.989Z,7.00
2023-01-19T19:46:43.982Z,7.00
2023-01-19T19:49:11.820Z,7.00
2023-01-19T19:51:39.660Z,7.00
2023-01-19T19:54:07.797Z,7.00
2023-01-19T19:56:35.476Z,7.00
2023-01-19T19:59:03.193Z,7.00
2023-01-19T20:01:33.734Z,7.00
2023-01-19T20:04:08.451Z,6.90
2023-01-19T20:06:39.003Z,6.90
2023-01-19T20:09:09.190Z,6.90
2023-01-19T20:11:44.726Z,6.80
2023-01-19T20:14:14.188Z,6.80
2023-01-19T20:16:42.607Z,6.70
2023-01-19T20:19:11.272Z,6.70
2023-01-19T20:21:42.022Z,6.60
2023-01-19T20:24:20.716Z,6.60
2023-01-19T20:26:52.497Z,6.50
2023-01-19T20:29:20.993Z,6.40
2023-01-19T20:31:55.070Z,6.30
2023-01-19T20:34:33.502Z,6.30
2023-01-19T20:37:09.624Z,6.30
2023-01-19T20:39:40.861Z,6.30
2023-01-19T20:42:11.780Z,6.20
2023-01-19T20:44:40.748Z,6.20
2023-01-19T20:47:26.349Z,6.20
2023-01-19T20:49:54.381Z,6.20
2023-01-19T20:52:22.995Z,6.20
2023-01-19T20:54:55.452Z,6.20
2023-01-19T20:57:23.531Z,6.20
2023-01-19T20:59:51.472Z,6.20
2023-01-19T21:02:19.080Z,6.10
2023-01-19T21:04:47.084Z,6.10
2023-01-19T21:07:14.910Z,6.10
2023-01-19T21:09:42.959Z,6.10
2023-01-19T21:12:10.940Z,6.10
2023-01-19T21:14:40.157Z,6.20
2023-01-19T21:17:08.945Z,6.20
2023-01-19T21:19:37.168Z,6.20
2023-01-19T21:22:05.346Z,6.20
2023-01-19T21:24:33.043Z,6.20
2023-01-19T21:27:00.666Z,6.20
2023-01-19T21:29:28.512Z,6.20
2023-01-19T21:31:56.116Z,6.20
2023-01-19T21:34:23.919Z,6.20
2023-01-19T21:36:52.362Z,6.20
2023-01-19T21:39:20.523Z,6.20
2023-01-19T21:41:48.076Z,6.20
2023-01-19T21:44:16.385Z,6.20
2023-01-19T21:46:44.320Z,6.20
2023-01-19T21:49:16.324Z,6.20
2023-01-19T21:51:48.156Z,6.20
2023-01-19T21:54:16.282Z,6.20
2023-01-19T21:56:44.683Z,6.20
2023-01-19T21:59:19.698Z,6.20
2023-01-19T22:01:47.330Z,6.20
2023-01-19T22:04:15.929Z,6.20
2023-01-19T22:06:43.488Z,6.20
2023-01-19T22:09:11.216Z,6.10
2023-01-19T22:11:39.324Z,6.10
2023-01-19T22:14:07.036Z,6.10
2023-01-19T22:16:34.691Z,6.10
2023-01-19T22:19:02.882Z,6.10
2023-01-19T22:21:52.798Z,6.20
2023-01-19T22:24:20.627Z,6.20
2023-01-19T22:26:48.938Z,6.20
2023-01-19T22:29:17.072Z,6.20
2023-01-19T22:31:46.161Z,6.20
2023-01-19T22:34:18.919Z,6.20
2023-01-19T22:36:47.005Z,6.20
2023-01-19T22:39:18.384Z,6.20
2023-01-19T22:41:59.693Z,6.20
2023-01-19T22:44:27.858Z,6.20
2023-01-19T22:46:56.884Z,6.20
2023-01-19T22:49:25.357Z,6.20
2023-01-19T22:51:54.492Z,6.20
2023-01-19T22:54:23.736Z,6.20
2023-01-19T22:56:51.977Z,6.20
2023-01-19T22:59:39.789Z,6.20
2023-01-19T23:02:09.427Z,6.20
2023-01-19T23:04:37.742Z,6.10
2023-01-19T23:07:05.671Z,6.10
2023-01-19T23:09:46.729Z,6.00
2023-01-19T23:12:14.409Z,5.80
2023-01-19T23:14:47.792Z,5.70
2023-01-19T23:17:19.260Z,5.70
2023-01-19T23:19:46.823Z,5.70
2023-01-19T23:22:23.324Z,5.70
2023-01-19T23:24:52.673Z,5.80
2023-01-19T23:27:29.573Z,5.80
2023-01-19T23:29:56.981Z,5.80
2023-01-19T23:32:25.241Z,5.80
2023-01-19T23:34:53.112Z,5.80
2023-01-19T23:37:21.539Z,5.80
2023-01-19T23:39:49.687Z,5.80
2023-01-19T23:42:17.753Z,5.80
2023-01-19T23:44:45.696Z,5.80
2023-01-19T23:47:34.945Z,5.70
2023-01-19T23:50:04.982Z,5.70
2023-01-19T23:52:32.486Z,5.70
2023-01-19T23:55:00.953Z,5.70
2023-01-19T23:57:28.528Z,5.80
2023-01-19T23:59:56.752Z,5.80
